Facebook Twitter

Wetterstation Glücksburg-Meierwik

Messwerte
  Temperatur Wetter Niederschlag Luftdruck Wind
Di, 16:20 Uhr 15° - - 1003 hPa 26 km/h SW
Di, 16:00 Uhr 14° - - 1003.2 hPa 14 km/h SW
Di, 15:20 Uhr 16° - - 1002 hPa 24 km/h W
Di, 15:00 Uhr 16° - - 1002.4 hPa 25 km/h SW
Di, 14:20 Uhr 16° - - 1002 hPa 26 km/h SW
Di, 14:00 Uhr 15° - - 1001.6 hPa 25 km/h W
Di, 13:20 Uhr 16° - - 1001 hPa 27 km/h W
Di, 13:00 Uhr 15° - - 1001.2 hPa 18 km/h SW
Di, 12:20 Uhr 15° - - 1001 hPa 21 km/h SW
Di, 12:00 Uhr 15° - - 1000.7 hPa 14 km/h SW
Di, 11:20 Uhr 14° - - 1000 hPa 16 km/h SW
Di, 11:00 Uhr 14° - - 1000.2 hPa 18 km/h SW
Di, 10:20 Uhr 14° - - 999 hPa 21 km/h SW
Di, 10:00 Uhr 14° - - 999.5 hPa 22 km/h W

Böen 40 km/h
Di, 09:20 Uhr 14° - - 999 hPa 21 km/h W
Di, 09:00 Uhr 13° - - 998.9 hPa 22 km/h W
Di, 08:20 Uhr 13° - - 998 hPa 29 km/h W
Di, 08:00 Uhr 13° - 10 mm 998.3 hPa 25 km/h W

Böen 43 km/h
Di, 07:20 Uhr 13° - - 997 hPa 34 km/h W

Böen 53 km/h
Di, 07:00 Uhr 13° - - 997.6 hPa 36 km/h W

Böen 50 km/h

Alle Zeitangaben MESZ